Time;durP1;ratioP1;P1;durP2;ratioP2;P2;SDS_P1;SDS_P2;PMS_P1;PMS_P2;Temp;Humidity;BMP_temperature;BMP_pressure;BME280_temperature;BME280_humidity;BME280_pressure;Samples;Min_cycle;Max_cycle;Signal;HPM_P1;HPM_P2
2022/08/24 00:00:23;;;;;;;;;;;;;;;25.63;33.20;96862.84;4222329;28;5621;-63
2022/08/24 00:02:27;;;;;;;;;;;;;;;25.57;33.39;96857.78;4222475;28;6526;-62
2022/08/24 00:04:31;;;;;;;;;;;;;;;25.50;33.20;96850.00;4206208;28;5743;-63
2022/08/24 00:06:34;;;;;;;;;;;;;;;25.50;33.42;96856.22;4224653;28;5767;-62
2022/08/24 00:08:38;;;;;;;;;;;;;;;25.51;33.24;96857.84;4226558;28;5123;-67
2022/08/24 00:10:41;;;;;;;;;;;;;;;25.53;33.54;96861.06;4228514;28;5747;-63
2022/08/24 00:12:44;;;;;;;;;;;;;;;25.54;33.49;96861.88;4227027;28;5641;-64
2022/08/24 00:14:48;;;;;;;;;;;;;;;25.54;33.06;96865.38;4224243;28;5684;-62
2022/08/24 00:16:51;;;;;;;;;;;;;;;25.54;33.70;96862.66;4212367;28;5611;-62
2022/08/24 00:18:54;;;;;;;;;;;;;;;25.54;33.17;96856.44;4227966;28;6425;-62
2022/08/24 00:20:57;;;;;;;;;;;;;;;25.53;33.23;96861.06;4223325;28;5763;-62
2022/08/24 00:23:01;;;;;;;;;;;;;;;25.50;33.30;96861.63;4223683;28;5707;-62
2022/08/24 00:25:05;;;;;;;;;;;;;;;25.50;33.14;96858.94;4208436;28;5966;-63
2022/08/24 00:27:10;;;;;;;;;;;;;;;25.49;33.76;96860.03;4227756;28;5810;-63
2022/08/24 00:29:13;;;;;;;;;;;;;;;25.48;33.34;96860.28;4226249;28;5616;-63
2022/08/24 00:31:18;;;;;;;;;;;;;;;25.45;33.49;96861.69;4233682;28;5571;-62
2022/08/24 00:33:21;;;;;;;;;;;;;;;25.45;33.49;96860.88;4209331;28;5823;-63
2022/08/24 00:35:25;;;;;;;;;;;;;;;25.42;33.65;96870.38;4212100;28;5673;-63
2022/08/24 00:37:28;;;;;;;;;;;;;;;25.41;33.65;96868.78;4203188;28;5631;-62
2022/08/24 00:39:31;;;;;;;;;;;;;;;25.40;33.58;96861.75;4209107;28;5673;-63
2022/08/24 00:41:35;;;;;;;;;;;;;;;25.41;33.58;96860.66;4210439;28;5680;-62
2022/08/24 00:43:38;;;;;;;;;;;;;;;25.41;33.45;96863.34;4209021;28;5799;-62
2022/08/24 00:45:44;;;;;;;;;;;;;;;25.40;33.77;96861.75;4207750;28;5836;-62
2022/08/24 00:47:54;;;;;;;;;;;;;;;25.39;33.66;96859.34;4208654;28;5733;-62
2022/08/24 00:49:59;;;;;;;;;;;;;;;25.40;33.90;96860.94;4208647;28;5689;-62
2022/08/24 00:52:07;;;;;;;;;;;;;;;25.38;33.89;96861.22;4206909;28;5698;-62
2022/08/24 00:54:13;;;;;;;;;;;;;;;25.38;34.17;96861.22;4209346;28;5792;-62
2022/08/24 00:56:21;;;;;;;;;;;;;;;25.36;34.26;96860.69;4211888;28;5699;-62
2022/08/24 00:58:29;;;;;;;;;;;;;;;25.36;34.15;96857.97;4206337;28;5697;-63
2022/08/24 01:00:42;;;;;;;;;;;;;;;25.34;34.23;96856.66;4209818;28;5106;-64
2022/08/24 01:02:57;;;;;;;;;;;;;;;25.34;33.82;96852.06;4212374;28;5850;-63
2022/08/24 01:05:04;;;;;;;;;;;;;;;25.33;34.29;96857.75;4208055;28;5755;-63
2022/08/24 01:07:07;;;;;;;;;;;;;;;25.30;34.48;96850.22;4204556;28;5705;-63
2022/08/24 01:09:09;;;;;;;;;;;;;;;25.30;34.42;96859.13;4211239;28;5862;-64
2022/08/24 01:11:17;;;;;;;;;;;;;;;25.30;34.30;96861.03;4211931;28;5726;-61
2022/08/24 01:13:24;;;;;;;;;;;;;;;25.26;34.62;96852.69;4210640;28;5843;-62
2022/08/24 01:15:27;;;;;;;;;;;;;;;25.28;34.23;96864.03;4206269;28;5646;-62
2022/08/24 01:19:57;;;;;;;;;;;;;;;25.28;34.80;96864.03;4210890;28;5691;-62
2022/08/24 01:22:19;;;;;;;;;;;;;;;25.26;34.74;96863.50;4203154;28;6361;-63
2022/08/24 01:24:23;;;;;;;;;;;;;;;25.26;34.68;96858.09;4208327;28;5669;-62
2022/08/24 01:26:31;;;;;;;;;;;;;;;25.24;34.55;96863.78;4207469;28;5851;-62
2022/08/24 01:28:38;;;;;;;;;;;;;;;25.22;34.76;96863.25;4204786;28;5820;-62
2022/08/24 01:30:44;;;;;;;;;;;;;;;25.22;34.78;96867.88;4209358;28;5822;-68
2022/08/24 01:32:54;;;;;;;;;;;;;;;25.22;34.68;96870.56;4204704;28;6388;-63
2022/08/24 01:34:58;;;;;;;;;;;;;;;25.22;35.03;96867.88;4229084;28;6283;-64
2022/08/24 01:37:02;;;;;;;;;;;;;;;25.22;34.86;96865.16;4220742;28;5736;-64
2022/08/24 01:39:12;;;;;;;;;;;;;;;25.23;34.62;96866.78;4222389;28;5687;-64
2022/08/24 01:41:16;;;;;;;;;;;;;;;25.22;34.96;96863.25;4227837;28;5601;-65
2022/08/24 01:43:19;;;;;;;;;;;;;;;25.23;35.06;96862.16;4226111;28;6547;-65
2022/08/24 01:45:22;;;;;;;;;;;;;;;25.22;35.13;96859.75;4227673;28;5510;-63
2022/08/24 01:47:24;;;;;;;;;;;;;;;25.20;34.86;96856.53;4228890;28;5826;-64
2022/08/24 01:49:29;;;;;;;;;;;;;;;25.18;34.91;96856.81;4226268;28;5602;-64
2022/08/24 01:51:34;;;;;;;;;;;;;;;25.17;35.31;96857.09;4223753;28;5616;-64
2022/08/24 01:53:37;;;;;;;;;;;;;;;25.18;35.23;96853.31;4198381;28;5771;-64
2022/08/24 01:55:40;;;;;;;;;;;;;;;25.17;35.02;96857.09;4221449;28;6437;-64
2022/08/24 01:57:45;;;;;;;;;;;;;;;25.16;35.21;96863.59;4225590;28;6485;-64
2022/08/24 01:59:48;;;;;;;;;;;;;;;25.16;35.02;96863.59;4204716;28;5624;-64
2022/08/24 02:01:55;;;;;;;;;;;;;;;25.15;35.20;96864.72;4225315;28;5696;-63
2022/08/24 02:04:02;;;;;;;;;;;;;;;25.14;35.39;96863.06;4229661;28;5796;-63
2022/08/24 02:06:05;;;;;;;;;;;;;;;25.12;35.31;96866.06;4222754;28;5895;-63
2022/08/24 02:08:09;;;;;;;;;;;;;;;25.13;35.44;96869.56;4220140;28;5642;-64
2022/08/24 02:10:13;;;;;;;;;;;;;;;25.13;35.25;96861.44;4206121;28;5612;-63
2022/08/24 02:12:17;;;;;;;;;;;;;;;25.10;35.04;96862.84;4226808;28;5518;-62
2022/08/24 02:14:21;;;;;;;;;;;;;;;25.12;34.90;96865.25;4219975;28;5605;-62
2022/08/24 02:16:27;;;;;;;;;;;;;;;25.11;35.30;96869.03;4221672;28;5609;-63
2022/08/24 02:18:30;;;;;;;;;;;;;;;25.08;34.90;96867.72;4227654;27;5813;-62
2022/08/24 02:20:35;;;;;;;;;;;;;;;25.06;35.25;96869.09;4221728;28;5901;-63
2022/08/24 02:22:38;;;;;;;;;;;;;;;25.06;35.00;96879.94;4199639;28;5624;-62
2022/08/24 02:24:41;;;;;;;;;;;;;;;25.04;34.83;96877.50;4226876;28;5691;-63
2022/08/24 02:26:44;;;;;;;;;;;;;;;25.04;35.03;96874.81;4218109;28;5676;-62
2022/08/24 02:28:47;;;;;;;;;;;;;;;25.05;35.23;96875.63;4219056;28;5733;-63
2022/08/24 02:30:52;;;;;;;;;;;;;;;25.04;35.20;96879.41;4203216;28;5826;-63
2022/08/24 02:32:55;;;;;;;;;;;;;;;25.02;34.87;96871.56;4227284;28;6513;-62
2022/08/24 02:34:58;;;;;;;;;;;;;;;25.00;35.28;96873.72;4225811;28;5494;-62
2022/08/24 02:37:01;;;;;;;;;;;;;;;24.97;35.08;96875.09;4222725;28;5732;-62
2022/08/24 02:39:05;;;;;;;;;;;;;;;24.97;35.11;96880.50;4227240;28;5637;-63
2022/08/24 02:41:07;;;;;;;;;;;;;;;24.96;35.36;96876.19;4217403;28;5687;-62
2022/08/24 02:43:10;;;;;;;;;;;;;;;24.96;35.32;96881.59;4223173;28;5776;-62
2022/08/24 02:45:13;;;;;;;;;;;;;;;24.97;35.40;96868.88;4229753;28;5630;-63
2022/08/24 02:47:18;;;;;;;;;;;;;;;24.95;34.87;96879.97;4226944;28;5831;-63
2022/08/24 02:49:23;;;;;;;;;;;;;;;24.93;35.31;96879.47;4217962;28;5620;-63
2022/08/24 02:51:28;;;;;;;;;;;;;;;24.92;35.35;96883.25;4209540;28;5608;-63
2022/08/24 02:53:31;;;;;;;;;;;;;;;24.90;35.55;96880.00;4202546;28;5763;-63
2022/08/24 02:55:35;;;;;;;;;;;;;;;24.90;35.37;96879.19;4222963;28;5840;-63
2022/08/24 02:57:38;;;;;;;;;;;;;;;24.89;35.26;96872.97;4222584;28;6153;-63
2022/08/24 02:59:41;;;;;;;;;;;;;;;24.90;35.50;96879.19;4220792;28;5624;-63
2022/08/24 03:01:45;;;;;;;;;;;;;;;24.86;35.12;96872.75;4223479;28;5752;-63
2022/08/24 03:03:53;;;;;;;;;;;;;;;24.85;35.70;96861.13;4227385;28;5605;-63
2022/08/24 03:05:56;;;;;;;;;;;;;;;24.86;35.48;96861.94;4221309;28;5645;-63
2022/08/24 03:07:58;;;;;;;;;;;;;;;24.86;35.25;96867.34;4217181;28;5799;-63
2022/08/24 03:10:03;;;;;;;;;;;;;;;24.86;35.19;96862.75;4204347;28;5894;-63
2022/08/24 03:12:06;;;;;;;;;;;;;;;24.85;35.41;96861.13;4222940;28;6244;-63
2022/08/24 03:14:09;;;;;;;;;;;;;;;24.83;35.28;96860.59;4198402;28;5667;-62
2022/08/24 03:16:12;;;;;;;;;;;;;;;24.82;35.53;96866.31;4202254;28;5617;-63
2022/08/24 03:18:15;;;;;;;;;;;;;;;24.82;35.78;96869.81;4225316;28;6571;-62
2022/08/24 03:20:21;;;;;;;;;;;;;;;24.82;35.86;96867.09;4231241;28;5715;-63
2022/08/24 03:22:24;;;;;;;;;;;;;;;24.81;35.80;96870.91;4226031;28;5657;-62
2022/08/24 03:24:27;;;;;;;;;;;;;;;24.80;35.80;96869.25;4224883;28;5610;-63
2022/08/24 03:26:30;;;;;;;;;;;;;;;24.79;36.10;96869.53;4230523;28;5912;-62
2022/08/24 03:28:33;;;;;;;;;;;;;;;24.78;36.00;96871.44;4225314;28;5650;-62
2022/08/24 03:30:37;;;;;;;;;;;;;;;24.79;36.21;96873.06;4221915;28;5624;-62
2022/08/24 03:32:43;;;;;;;;;;;;;;;24.76;36.57;96870.94;4224946;28;5688;-63
2022/08/24 03:34:46;;;;;;;;;;;;;;;24.76;36.57;96870.13;4230518;28;5610;-63
2022/08/24 03:36:50;;;;;;;;;;;;;;;24.73;36.64;96879.59;4215300;28;5625;-63
2022/08/24 03:38:53;;;;;;;;;;;;;;;24.73;36.89;96874.19;4225711;28;5732;-63
2022/08/24 03:40:56;;;;;;;;;;;;;;;24.73;37.11;96874.19;4222968;28;5606;-63
2022/08/24 03:43:00;;;;;;;;;;;;;;;24.71;36.55;96876.38;4218911;28;6440;-64
2022/08/24 03:45:04;;;;;;;;;;;;;;;24.72;37.26;96871.78;4226830;28;5498;-64
2022/08/24 03:47:09;;;;;;;;;;;;;;;24.70;36.94;96869.38;4223137;27;5640;-63
2022/08/24 03:49:13;;;;;;;;;;;;;;;24.67;37.17;96873.41;4226903;27;5613;-64
2022/08/24 03:51:18;;;;;;;;;;;;;;;24.68;37.53;96876.91;4225611;27;5621;-63
2022/08/24 03:53:23;;;;;;;;;;;;;;;24.70;37.59;96868.56;4233348;27;6543;-63
2022/08/24 03:55:25;;;;;;;;;;;;;;;24.69;37.35;96875.88;4225518;28;5679;-63
2022/08/24 03:57:28;;;;;;;;;;;;;;;24.70;37.64;96876.66;4227500;28;5613;-63
2022/08/24 03:59:31;;;;;;;;;;;;;;;24.70;37.75;96869.38;4225320;28;5724;-63
2022/08/24 04:01:34;;;;;;;;;;;;;;;24.71;37.42;96875.56;4219892;28;5624;-63
2022/08/24 04:03:39;;;;;;;;;;;;;;;24.67;37.82;96875.31;4219322;28;7781;-63
2022/08/24 04:05:42;;;;;;;;;;;;;;;24.64;38.14;96871.28;4224231;28;5712;-63
2022/08/24 04:07:45;;;;;;;;;;;;;;;24.64;37.98;96871.28;4223832;28;5776;-63
2022/08/24 04:09:50;;;;;;;;;;;;;;;24.64;38.29;96875.88;4219854;28;5613;-63
2022/08/24 04:11:52;;;;;;;;;;;;;;;24.63;38.17;96868.88;4208958;28;5739;-64
2022/08/24 04:13:57;;;;;;;;;;;;;;;24.63;37.78;96866.97;4205864;28;5605;-63
2022/08/24 04:16:04;;;;;;;;;;;;;;;24.63;38.02;96869.66;4227838;28;5700;-63
2022/08/24 04:18:07;;;;;;;;;;;;;;;24.61;38.36;96871.03;4203957;28;5634;-63
2022/08/24 04:20:11;;;;;;;;;;;;;;;24.58;38.31;96868.91;4231608;28;5833;-63
2022/08/24 04:22:15;;;;;;;;;;;;;;;24.58;37.75;96871.63;4223571;28;5621;-63
2022/08/24 04:24:19;;;;;;;;;;;;;;;24.56;38.12;96862.94;4227436;28;5601;-63
2022/08/24 04:26:26;;;;;;;;;;;;;;;24.56;37.98;96873.75;4228765;28;5638;-62
2022/08/24 04:28:48;;;;;;;;;;;;;;;24.53;37.73;96872.44;4230658;28;5617;-62
2022/08/24 04:30:51;;;;;;;;;;;;;;;24.52;37.83;96875.41;4224209;28;5893;-62
2022/08/24 04:32:54;;;;;;;;;;;;;;;24.51;37.92;96879.22;4222677;28;5815;-62
2022/08/24 04:34:58;;;;;;;;;;;;;;;24.49;37.64;96868.69;4218777;28;5088;-63
2022/08/24 04:37:00;;;;;;;;;;;;;;;24.47;37.69;96872.78;4226097;28;5696;-64
2022/08/24 04:39:04;;;;;;;;;;;;;;;24.48;37.87;96869.78;4226958;28;5681;-63
2022/08/24 04:41:11;;;;;;;;;;;;;;;24.48;38.20;96877.09;4224342;28;5549;-63
2022/08/24 04:43:17;;;;;;;;;;;;;;;24.49;37.75;96881.41;4218596;28;5691;-63
2022/08/24 04:45:22;;;;;;;;;;;;;;;24.49;37.81;96874.09;4225874;28;6453;-63
2022/08/24 04:47:25;;;;;;;;;;;;;;;24.47;37.73;96880.88;4226050;28;5674;-63
2022/08/24 04:49:28;;;;;;;;;;;;;;;24.46;37.95;96879.22;4226069;28;5605;-62
2022/08/24 04:51:31;;;;;;;;;;;;;;;24.46;38.11;96880.03;4224952;28;6504;-63
2022/08/24 04:53:39;;;;;;;;;;;;;;;24.46;37.90;96879.22;4224381;28;5866;-62
2022/08/24 04:55:44;;;;;;;;;;;;;;;24.45;38.12;96883.03;4220792;28;6279;-62
2022/08/24 04:57:47;;;;;;;;;;;;;;;24.45;37.84;96886.53;4223256;28;5704;-62
2022/08/24 04:59:55;;;;;;;;;;;;;;;24.44;38.09;96886.81;4218015;28;6288;-62
2022/08/24 05:01:57;;;;;;;;;;;;;;;24.44;37.82;96894.91;4225621;28;5946;-63
2022/08/24 05:04:01;;;;;;;;;;;;;;;24.42;38.22;96894.41;4234991;28;5522;-64
2022/08/24 05:06:05;;;;;;;;;;;;;;;24.43;38.00;96899.53;4234962;28;5606;-63
2022/08/24 05:08:08;;;;;;;;;;;;;;;24.43;37.74;96891.41;4234824;28;5107;-63
2022/08/24 05:10:11;;;;;;;;;;;;;;;24.43;38.14;96890.59;4234449;28;5821;-63
2022/08/24 05:12:13;;;;;;;;;;;;;;;24.41;37.77;96892.78;4234787;28;5598;-63
2022/08/24 05:14:16;;;;;;;;;;;;;;;24.42;38.36;96894.41;4235011;28;5658;-63
2022/08/24 05:16:21;;;;;;;;;;;;;;;24.41;38.27;96898.19;4234413;28;5709;-63
2022/08/24 05:18:28;;;;;;;;;;;;;;;24.41;38.41;96898.19;4234485;28;5601;-63
2022/08/24 05:20:31;;;;;;;;;;;;;;;24.40;38.35;96889.28;4234737;28;5622;-63
2022/08/24 05:22:34;;;;;;;;;;;;;;;24.41;38.17;96900.88;4215795;28;5616;-63
2022/08/24 05:24:37;;;;;;;;;;;;;;;24.41;38.21;96898.19;4234285;28;5594;-63
2022/08/24 05:26:40;;;;;;;;;;;;;;;24.41;38.48;96907.09;4234602;28;5772;-63
2022/08/24 05:28:44;;;;;;;;;;;;;;;24.42;38.05;96905.19;4233636;28;6231;-63
2022/08/24 05:30:47;;;;;;;;;;;;;;;24.41;38.12;96898.19;4217453;28;5802;-62
2022/08/24 05:32:54;;;;;;;;;;;;;;;24.40;38.18;96897.38;4217325;28;5632;-63
2022/08/24 05:34:59;;;;;;;;;;;;;;;24.42;38.65;96899.81;4228231;28;5680;-63
2022/08/24 05:37:03;;;;;;;;;;;;;;;24.42;38.36;96906.00;4234641;28;6283;-63
2022/08/24 05:39:08;;;;;;;;;;;;;;;24.46;38.24;96906.25;4211704;28;5628;-62
2022/08/24 05:41:13;;;;;;;;;;;;;;;24.46;38.58;96900.84;4222370;28;5718;-62
2022/08/24 05:43:16;;;;;;;;;;;;;;;24.48;38.52;96893.28;4234078;28;5598;-64
2022/08/24 05:45:19;;;;;;;;;;;;;;;24.52;38.42;96905.97;4234272;28;5586;-63
2022/08/24 05:47:22;;;;;;;;;;;;;;;24.52;38.35;96907.84;4230936;28;6283;-63
2022/08/24 05:49:27;;;;;;;;;;;;;;;24.53;38.64;96915.69;4218888;28;6363;-63
2022/08/24 05:51:30;;;;;;;;;;;;;;;24.55;38.68;96920.81;4224418;28;5711;-63
2022/08/24 05:53:33;;;;;;;;;;;;;;;24.57;38.49;96924.03;4222757;28;5621;-64
2022/08/24 05:55:37;;;;;;;;;;;;;;;24.57;38.89;96930.25;4226767;28;6286;-63
2022/08/24 05:57:40;;;;;;;;;;;;;;;24.61;38.67;96925.91;4228387;27;7191;-64
2022/08/24 05:59:43;;;;;;;;;;;;;;;24.65;38.80;96921.53;4237002;27;5714;-64
2022/08/24 06:01:46;;;;;;;;;;;;;;;24.68;39.14;96920.19;4241494;27;5818;-61
2022/08/24 06:03:50;;;;;;;;;;;;;;;24.70;39.35;96923.44;4222973;27;5613;-63
2022/08/24 06:05:54;;;;;;;;;;;;;;;24.75;39.37;96922.56;4227209;28;5710;-63
2022/08/24 06:07:58;;;;;;;;;;;;;;;24.77;39.00;96925.81;4224399;28;5605;-64
2022/08/24 06:10:01;;;;;;;;;;;;;;;24.77;39.62;96918.50;4224935;28;5598;-64
2022/08/24 06:12:24;;;;;;;;;;;;;;;24.86;39.49;96930.34;4234015;28;5729;-65
2022/08/24 06:14:26;;;;;;;;;;;;;;;24.90;39.43;96931.38;4233981;28;5168;-64
2022/08/24 06:16:30;;;;;;;;;;;;;;;24.96;39.73;96927.56;4230971;28;5733;-64
2022/08/24 06:18:33;;;;;;;;;;;;;;;25.01;39.70;96929.44;4215884;28;5616;-62
2022/08/24 06:20:40;;;;;;;;;;;;;;;25.04;39.40;96930.78;4233578;28;5607;-62
2022/08/24 06:22:44;;;;;;;;;;;;;;;25.05;39.53;96925.09;4233684;28;5621;-62
2022/08/24 06:27:24;;;;;;;;;;;;;;;25.13;40.10;96927.19;4233739;28;5778;-62
2022/08/24 06:29:28;;;;;;;;;;;;;;;25.15;39.70;96929.63;4233772;28;5605;-62
2022/08/24 06:31:34;;;;;;;;;;;;;;;25.18;40.05;96937.16;4234114;28;5622;-62
2022/08/24 06:33:42;;;;;;;;;;;;;;;25.20;40.22;96932.28;4233283;28;5850;-62
2022/08/24 06:35:46;;;;;;;;;;;;;;;25.21;40.39;96933.88;4233813;28;5617;-62
2022/08/24 06:37:50;;;;;;;;;;;;;;;25.21;40.15;96933.88;4233975;28;5785;-63
2022/08/24 06:39:54;;;;;;;;;;;;;;;25.21;40.61;96926.56;4233485;28;5598;-63
2022/08/24 06:41:58;;;;;;;;;;;;;;;25.23;40.62;96937.91;4233503;28;5677;-63
2022/08/24 06:44:02;;;;;;;;;;;;;;;25.23;40.21;96937.13;4233646;28;5598;-63
2022/08/24 06:46:05;;;;;;;;;;;;;;;25.25;40.28;96934.94;4233576;28;5820;-63
2022/08/24 06:48:08;;;;;;;;;;;;;;;25.27;40.18;96937.38;4227085;28;5725;-63
2022/08/24 06:50:12;;;;;;;;;;;;;;;25.29;40.81;96935.19;4233515;28;5598;-63
2022/08/24 06:52:15;;;;;;;;;;;;;;;25.29;40.57;96944.09;4233098;28;5610;-62
2022/08/24 06:54:20;;;;;;;;;;;;;;;25.29;40.79;96941.41;4215430;28;6286;-62
2022/08/24 06:56:23;;;;;;;;;;;;;;;25.29;40.71;96941.41;4233695;28;5610;-63
2022/08/24 06:58:27;;;;;;;;;;;;;;;25.25;41.06;96948.44;4233286;28;5627;-64
2022/08/24 07:00:30;;;;;;;;;;;;;;;25.23;41.22;96947.94;4233574;28;5707;-63
2022/08/24 07:02:33;;;;;;;;;;;;;;;25.14;41.19;96939.66;4233308;28;5594;-63
2022/08/24 07:04:37;;;;;;;;;;;;;;;25.15;41.14;96940.44;4233393;28;5606;-63
2022/08/24 07:06:40;;;;;;;;;;;;;;;25.14;41.50;96950.47;4236355;28;5087;-63
2022/08/24 07:08:43;;;;;;;;;;;;;;;25.12;41.83;96951.81;4236702;28;5653;-63
2022/08/24 07:10:47;;;;;;;;;;;;;;;25.11;41.93;96953.72;4229551;28;5609;-63
2022/08/24 07:12:50;;;;;;;;;;;;;;;25.15;41.55;96956.69;4218859;28;5739;-63
2022/08/24 07:14:54;;;;;;;;;;;;;;;25.16;41.77;96956.38;4227654;27;5188;-63
2022/08/24 07:16:57;;;;;;;;;;;;;;;25.19;41.83;96957.72;4245035;27;5587;-63
2022/08/24 07:19:01;;;;;;;;;;;;;;;25.17;42.06;96957.19;4234435;27;5810;-62
2022/08/24 07:21:05;;;;;;;;;;;;;;;25.19;42.21;96957.72;4235661;27;5598;-63
2022/08/24 07:23:11;;;;;;;;;;;;;;;25.23;42.21;96947.94;4217101;28;5620;-63
2022/08/24 07:25:14;;;;;;;;;;;;;;;25.25;42.26;96954.66;4235164;27;5673;-64
2022/08/24 07:27:19;;;;;;;;;;;;;;;25.29;42.35;96952.22;4218385;28;5699;-64
2022/08/24 07:29:22;;;;;;;;;;;;;;;25.34;42.35;96963.00;4236473;28;5650;-63
2022/08/24 07:31:45;;;;;;;;;;;;;;;25.36;42.36;96958.09;4239959;27;5607;-63
2022/08/24 07:33:48;;;;;;;;;;;;;;;25.38;42.36;96955.94;4234123;27;5701;-63
2022/08/24 07:35:53;;;;;;;;;;;;;;;25.36;42.10;96965.41;4233039;27;5684;-65
2022/08/24 07:37:58;;;;;;;;;;;;;;;25.36;42.10;96957.28;4223192;28;5609;-70
2022/08/24 07:40:02;;;;;;;;;;;;;;;25.38;42.54;96961.34;4231983;28;5590;-70
2022/08/24 07:42:05;;;;;;;;;;;;;;;25.39;42.78;96962.97;4236283;28;5869;-70
2022/08/24 07:44:19;;;;;;;;;;;;;;;25.40;42.30;96959.16;4236154;28;5621;-71
2022/08/24 07:46:23;;;;;;;;;;;;;;;25.44;42.55;96962.09;4231433;27;5712;-71
2022/08/24 07:48:27;;;;;;;;;;;;;;;25.47;42.59;96958.81;4232616;28;5631;-72
2022/08/24 07:50:30;;;;;;;;;;;;;;;25.48;42.83;96958.56;4235791;28;5732;-72
2022/08/24 07:52:34;;;;;;;;;;;;;;;25.49;42.60;96959.38;4235318;28;5609;-73
2022/08/24 07:54:36;;;;;;;;;;;;;;;25.51;42.89;96960.69;4220485;28;5624;-72
2022/08/24 07:56:40;;;;;;;;;;;;;;;25.52;43.01;96962.31;4236664;27;5699;-72
2022/08/24 07:58:43;;;;;;;;;;;;;;;25.54;42.94;96964.72;4235462;28;5618;-71
2022/08/24 08:00:48;;;;;;;;;;;;;;;25.55;43.08;96966.34;4235670;28;5605;-70
2022/08/24 08:02:51;;;;;;;;;;;;;;;25.58;43.02;96959.53;4234961;28;5598;-73
2022/08/24 08:04:55;;;;;;;;;;;;;;;25.60;43.02;96963.59;4235712;28;5586;-68
2022/08/24 08:06:59;;;;;;;;;;;;;;;25.61;43.09;96959.00;4235475;28;5613;-68
2022/08/24 08:09:05;;;;;;;;;;;;;;;25.63;42.95;96968.44;4235319;28;5640;-68
2022/08/24 08:11:09;;;;;;;;;;;;;;;25.66;43.15;96967.06;4235390;28;6338;-67
2022/08/24 08:13:12;;;;;;;;;;;;;;;25.65;42.86;96960.03;4235542;28;5651;-67
2022/08/24 08:15:14;;;;;;;;;;;;;;;25.64;43.10;96966.53;4235546;28;5637;-66
2022/08/24 08:17:19;;;;;;;;;;;;;;;25.61;43.23;96962.50;4235161;28;5597;-66
2022/08/24 08:19:22;;;;;;;;;;;;;;;25.65;42.89;96965.44;4235023;28;5844;-68
2022/08/24 08:26:06;;;;;;;;;;;;;;;25.70;43.40;96973.53;4235032;28;5622;-66
2022/08/24 08:28:09;;;;;;;;;;;;;;;25.70;43.36;96966.22;4232137;28;5634;-65
2022/08/24 08:30:28;;;;;;;;;;;;;;;25.72;43.08;96971.38;4228425;28;5605;-68
2022/08/24 08:32:33;;;;;;;;;;;;;;;25.72;43.63;96966.75;4231926;28;5669;-68
2022/08/24 08:34:35;;;;;;;;;;;;;;;25.74;43.46;96967.28;4229598;28;5771;-68
2022/08/24 08:36:40;;;;;;;;;;;;;;;25.76;43.50;96964.28;4216810;28;5604;-70
2022/08/24 08:38:47;;;;;;;;;;;;;;;25.77;43.57;96963.19;4222741;28;5644;-67
2022/08/24 08:41:03;;;;;;;;;;;;;;;25.79;43.27;96961.00;4231388;28;5951;-70
2022/08/24 08:43:16;;;;;;;;;;;;;;;25.83;43.19;96967.47;4235216;28;5604;-73
2022/08/24 08:45:30;;;;;;;;;;;;;;;25.84;43.45;96966.38;4233358;28;5609;-71
2022/08/24 08:48:04;;;;;;;;;;;;;;;25.89;43.09;96971.72;4232002;28;5726;-67
2022/08/24 08:50:14;;;;;;;;;;;;;;;25.89;43.17;96960.06;4234927;28;5597;-69
2022/08/24 08:52:39;;;;;;;;;;;;;;;25.89;43.64;96969.00;4235003;28;5621;-67
2022/08/24 08:54:50;;;;;;;;;;;;;;;25.94;43.21;96968.16;4228494;28;5821;-69
2022/08/24 08:57:14;;;;;;;;;;;;;;;25.95;43.53;96970.59;4234381;28;5597;-67
2022/08/24 08:59:38;;;;;;;;;;;;;;;25.94;43.44;96973.59;4234602;28;5700;-69
2022/08/24 09:01:53;;;;;;;;;;;;;;;25.94;43.26;96974.38;4234350;28;5665;-69
2022/08/24 09:04:37;;;;;;;;;;;;;;;25.96;43.69;96969.50;4220156;28;5817;-67
2022/08/24 09:07:05;;;;;;;;;;;;;;;25.98;43.46;96970.00;4217901;28;5816;-69
2022/08/24 09:09:25;;;;;;;;;;;;;;;26.01;43.18;96966.72;4218040;28;5620;-66
2022/08/24 09:11:39;;;;;;;;;;;;;;;26.05;43.06;96970.47;4217739;28;5795;-69
2022/08/24 09:13:58;;;;;;;;;;;;;;;26.07;43.27;96952.03;4222221;28;5617;-65
2022/08/24 09:16:26;;;;;;;;;;;;;;;26.11;43.08;96961.19;4234719;28;6361;-67
2022/08/24 09:18:45;;;;;;;;;;;;;;;26.14;43.15;96957.06;4233881;28;5606;-65
2022/08/24 09:21:10;;;;;;;;;;;;;;;26.16;43.15;96954.88;4235581;28;5606;-77
2022/08/24 09:23:25;;;;;;;;;;;;;;;26.19;43.02;96950.81;4225444;28;5601;-73
2022/08/24 09:25:36;;;;;;;;;;;;;;;26.25;42.88;96946.94;4217090;28;5621;-66
2022/08/24 09:27:52;;;;;;;;;;;;;;;26.28;42.78;96949.09;4218128;28;5690;-75
2022/08/24 09:30:08;;;;;;;;;;;;;;;26.31;42.95;96946.59;4234373;28;5596;-69
2022/08/24 09:32:28;;;;;;;;;;;;;;;26.34;42.95;96945.19;4233876;28;5757;-66
2022/08/24 09:34:39;;;;;;;;;;;;;;;26.37;42.47;96950.06;4224497;28;5665;-67
2022/08/24 09:37:03;;;;;;;;;;;;;;;26.35;42.87;96949.50;4220223;28;5606;-66
2022/08/24 09:39:20;;;;;;;;;;;;;;;26.32;42.94;96948.19;4217304;28;5628;-64
2022/08/24 09:42:07;;;;;;;;;;;;;;;26.30;42.67;96944.97;4228527;27;5598;-71
2022/08/24 09:44:37;;;;;;;;;;;;;;;26.33;42.73;96943.59;4220727;28;5970;-64
2022/08/24 09:47:06;;;;;;;;;;;;;;;26.37;42.58;96944.63;4231781;27;5076;-64
2022/08/24 09:49:50;;;;;;;;;;;;;;;26.39;42.62;96943.28;4173260;28;5795;-65
2022/08/24 09:52:10;;;;;;;;;;;;;;;26.38;42.74;96938.91;4236136;27;5855;-61
2022/08/24 09:55:06;;;;;;;;;;;;;;;26.35;42.45;96930.53;4231673;27;5826;-62
2022/08/24 09:57:29;;;;;;;;;;;;;;;26.36;42.75;96938.41;4213833;28;5621;-62
2022/08/24 10:00:08;;;;;;;;;;;;;;;26.39;42.41;96926.22;4227332;28;5861;-62
2022/08/24 10:02:32;;;;;;;;;;;;;;;26.40;42.37;96935.94;4228326;28;5561;-62
2022/08/24 10:04:56;;;;;;;;;;;;;;;26.40;42.28;96923.19;4236903;27;5587;-64
2022/08/24 10:07:11;;;;;;;;;;;;;;;26.45;42.30;96925.03;4231681;28;5680;-64
2022/08/24 10:09:36;;;;;;;;;;;;;;;26.42;42.51;96928.31;4233987;28;5624;-65
2022/08/24 10:11:50;;;;;;;;;;;;;;;26.42;42.45;96925.63;4233607;28;5645;-65
2022/08/24 10:14:01;;;;;;;;;;;;;;;26.43;42.56;96921.00;4234046;28;5609;-64
2022/08/24 10:16:20;;;;;;;;;;;;;;;26.45;42.03;96914.19;4233678;28;5649;-64
2022/08/24 10:18:35;;;;;;;;;;;;;;;26.48;42.16;96919.00;4233939;28;5668;-64
2022/08/24 10:21:07;;;;;;;;;;;;;;;26.46;42.25;96921.22;4229338;28;5613;-64
2022/08/24 10:23:32;;;;;;;;;;;;;;;26.38;42.13;96930.00;4233123;28;5684;-64
2022/08/24 10:25:39;;;;;;;;;;;;;;;26.35;42.00;96919.69;4215150;28;5625;-64
2022/08/24 10:27:55;;;;;;;;;;;;;;;26.38;42.36;96919.16;4233533;28;5656;-64
2022/08/24 10:30:24;;;;;;;;;;;;;;;26.42;42.00;96917.47;4233546;28;5741;-64
2022/08/24 10:32:48;;;;;;;;;;;;;;;26.45;42.05;96921.50;4229125;28;5743;-63
2022/08/24 10:35:03;;;;;;;;;;;;;;;26.48;42.18;96921.72;4233422;28;5510;-63
2022/08/24 10:37:38;;;;;;;;;;;;;;;26.51;41.87;96923.88;4233239;28;5605;-64
2022/08/24 10:40:09;;;;;;;;;;;;;;;26.54;41.76;96911.63;4230892;28;5621;-65
2022/08/24 10:45:23;;;;;;;;;;;;;;;26.60;41.76;96913.97;4216825;28;5637;-63
2022/08/24 10:47:29;;;;;;;;;;;;;;;26.63;41.64;96912.59;4230823;28;5082;-63
2022/08/24 10:50:05;;;;;;;;;;;;;;;26.63;41.96;96910.69;4219978;28;5826;-63
2022/08/24 10:52:44;;;;;;;;;;;;;;;26.64;41.96;96911.50;4219557;28;5803;-63
2022/08/24 10:54:48;;;;;;;;;;;;;;;26.64;41.93;96909.59;4201491;28;5766;-63
2022/08/24 10:57:05;;;;;;;;;;;;;;;26.65;41.71;96905.78;4234512;28;5656;-65
2022/08/24 10:59:23;;;;;;;;;;;;;;;26.68;42.16;96897.03;4236893;28;5609;-64
2022/08/24 11:01:30;;;;;;;;;;;;;;;26.72;41.84;96907.28;4236704;28;5621;-63
2022/08/24 11:03:48;;;;;;;;;;;;;;;26.75;42.15;96902.09;4236876;28;5696;-63
2022/08/24 11:05:54;;;;;;;;;;;;;;;26.79;42.12;96905.03;4236560;28;5617;-63
2022/08/24 11:07:59;;;;;;;;;;;;;;;26.77;42.07;96902.63;4236811;28;5601;-63
2022/08/24 11:10:07;;;;;;;;;;;;;;;26.77;41.98;96902.63;4236265;28;5774;-63
2022/08/24 11:12:22;;;;;;;;;;;;;;;26.81;41.83;96909.03;4236613;28;5720;-63
2022/08/24 11:14:28;;;;;;;;;;;;;;;26.83;41.96;96900.63;4218355;28;5628;-64
2022/08/24 11:16:35;;;;;;;;;;;;;;;26.83;41.88;96900.63;4233392;27;5641;-63
2022/08/24 11:18:48;;;;;;;;;;;;;;;26.83;41.83;96901.41;4236446;28;5109;-64
2022/08/24 11:20:53;;;;;;;;;;;;;;;26.86;41.96;96906.28;4231989;27;5602;-63
2022/08/24 11:23:03;;;;;;;;;;;;;;;26.88;41.98;96897.84;4230149;27;5583;-64
2022/08/24 11:25:16;;;;;;;;;;;;;;;26.91;41.97;96902.66;4246798;27;7683;-64
2022/08/24 11:27:29;;;;;;;;;;;;;;;26.93;41.68;96897.75;4235978;27;5636;-64